sensor_id;sensor_type;location;lat;lon;timestamp;P1;durP1;ratioP1;P2;durP2;ratioP2
67140;SDS011;54058;52.010;5.546;2024-01-11T00:02:20;18.63;;;8.45;;
67140;SDS011;54058;52.010;5.546;2024-01-11T00:04:45;19.27;;;9.52;;
67140;SDS011;54058;52.010;5.546;2024-01-11T00:07:11;25.00;;;10.07;;
67140;SDS011;54058;52.010;5.546;2024-01-11T00:09:41;20.95;;;9.93;;
67140;SDS011;54058;52.010;5.546;2024-01-11T00:12:07;30.17;;;12.00;;
67140;SDS011;54058;52.010;5.546;2024-01-11T00:14:33;24.75;;;10.27;;
67140;SDS011;54058;52.010;5.546;2024-01-11T00:16:58;24.67;;;9.93;;
67140;SDS011;54058;52.010;5.546;2024-01-11T00:19:24;24.02;;;9.45;;
67140;SDS011;54058;52.010;5.546;2024-01-11T00:21:49;27.77;;;10.07;;
67140;SDS011;54058;52.010;5.546;2024-01-11T00:24:15;25.60;;;10.32;;
67140;SDS011;54058;52.010;5.546;2024-01-11T00:26:41;21.10;;;9.13;;
67140;SDS011;54058;52.010;5.546;2024-01-11T00:29:07;21.10;;;9.20;;
67140;SDS011;54058;52.010;5.546;2024-01-11T00:31:32;26.20;;;10.30;;
67140;SDS011;54058;52.010;5.546;2024-01-11T00:33:58;20.35;;;9.23;;
67140;SDS011;54058;52.010;5.546;2024-01-11T00:36:24;19.83;;;9.10;;
67140;SDS011;54058;52.010;5.546;2024-01-11T00:38:50;24.65;;;10.05;;
67140;SDS011;54058;52.010;5.546;2024-01-11T00:41:16;16.90;;;8.98;;
67140;SDS011;54058;52.010;5.546;2024-01-11T00:43:42;23.40;;;9.05;;
67140;SDS011;54058;52.010;5.546;2024-01-11T00:46:07;19.00;;;8.68;;
67140;SDS011;54058;52.010;5.546;2024-01-11T00:48:33;18.50;;;9.13;;
67140;SDS011;54058;52.010;5.546;2024-01-11T00:50:58;19.38;;;8.45;;
67140;SDS011;54058;52.010;5.546;2024-01-11T00:53:24;20.98;;;9.55;;
67140;SDS011;54058;52.010;5.546;2024-01-11T00:55:55;22.90;;;9.32;;
67140;SDS011;54058;52.010;5.546;2024-01-11T00:58:21;20.17;;;8.63;;
67140;SDS011;54058;52.010;5.546;2024-01-11T01:00:47;19.90;;;8.48;;
67140;SDS011;54058;52.010;5.546;2024-01-11T01:03:12;21.55;;;9.45;;
67140;SDS011;54058;52.010;5.546;2024-01-11T01:05:39;20.20;;;8.98;;
67140;SDS011;54058;52.010;5.546;2024-01-11T01:08:04;19.73;;;8.52;;
67140;SDS011;54058;52.010;5.546;2024-01-11T01:10:30;21.00;;;8.95;;
67140;SDS011;54058;52.010;5.546;2024-01-11T01:12:56;20.33;;;9.70;;
67140;SDS011;54058;52.010;5.546;2024-01-11T01:15:21;18.20;;;8.60;;
67140;SDS011;54058;52.010;5.546;2024-01-11T01:17:47;21.25;;;9.13;;
67140;SDS011;54058;52.010;5.546;2024-01-11T01:20:12;18.75;;;8.98;;
67140;SDS011;54058;52.010;5.546;2024-01-11T01:22:39;19.70;;;9.82;;
67140;SDS011;54058;52.010;5.546;2024-01-11T01:25:05;24.63;;;8.50;;
67140;SDS011;54058;52.010;5.546;2024-01-11T01:27:31;23.10;;;9.98;;
67140;SDS011;54058;52.010;5.546;2024-01-11T01:29:57;20.92;;;8.82;;
67140;SDS011;54058;52.010;5.546;2024-01-11T01:32:22;15.40;;;7.75;;
67140;SDS011;54058;52.010;5.546;2024-01-11T01:34:48;20.30;;;8.57;;
67140;SDS011;54058;52.010;5.546;2024-01-11T01:37:13;18.60;;;8.38;;
67140;SDS011;54058;52.010;5.546;2024-01-11T01:39:39;18.17;;;8.57;;
67140;SDS011;54058;52.010;5.546;2024-01-11T01:42:05;19.02;;;8.27;;
67140;SDS011;54058;52.010;5.546;2024-01-11T01:44:31;21.08;;;8.90;;
67140;SDS011;54058;52.010;5.546;2024-01-11T01:46:57;22.80;;;8.52;;
67140;SDS011;54058;52.010;5.546;2024-01-11T01:49:23;17.42;;;8.20;;
67140;SDS011;54058;52.010;5.546;2024-01-11T01:51:49;14.82;;;7.43;;
67140;SDS011;54058;52.010;5.546;2024-01-11T01:54:16;16.70;;;8.27;;
67140;SDS011;54058;52.010;5.546;2024-01-11T01:56:42;15.90;;;8.00;;
67140;SDS011;54058;52.010;5.546;2024-01-11T01:59:08;21.30;;;7.50;;
67140;SDS011;54058;52.010;5.546;2024-01-11T02:01:35;18.98;;;8.27;;
67140;SDS011;54058;52.010;5.546;2024-01-11T02:04:01;17.55;;;8.57;;
67140;SDS011;54058;52.010;5.546;2024-01-11T02:06:27;17.90;;;8.48;;
67140;SDS011;54058;52.010;5.546;2024-01-11T02:08:57;17.67;;;7.22;;
67140;SDS011;54058;52.010;5.546;2024-01-11T02:11:25;13.60;;;7.07;;
67140;SDS011;54058;52.010;5.546;2024-01-11T02:13:52;21.25;;;8.63;;
67140;SDS011;54058;52.010;5.546;2024-01-11T02:16:18;14.07;;;7.53;;
67140;SDS011;54058;52.010;5.546;2024-01-11T02:18:44;15.43;;;8.18;;
67140;SDS011;54058;52.010;5.546;2024-01-11T02:21:11;19.48;;;7.65;;
67140;SDS011;54058;52.010;5.546;2024-01-11T02:23:41;15.20;;;8.00;;
67140;SDS011;54058;52.010;5.546;2024-01-11T02:26:13;20.88;;;9.02;;
67140;SDS011;54058;52.010;5.546;2024-01-11T02:28:42;16.23;;;7.22;;
67140;SDS011;54058;52.010;5.546;2024-01-11T02:31:08;14.68;;;7.32;;
67140;SDS011;54058;52.010;5.546;2024-01-11T02:33:35;16.33;;;7.90;;
67140;SDS011;54058;52.010;5.546;2024-01-11T02:36:01;18.27;;;8.10;;
67140;SDS011;54058;52.010;5.546;2024-01-11T02:38:27;17.75;;;8.20;;
67140;SDS011;54058;52.010;5.546;2024-01-11T02:40:53;18.02;;;7.93;;
67140;SDS011;54058;52.010;5.546;2024-01-11T02:43:19;18.55;;;8.20;;
67140;SDS011;54058;52.010;5.546;2024-01-11T02:45:45;18.35;;;8.07;;
67140;SDS011;54058;52.010;5.546;2024-01-11T02:48:11;18.45;;;9.18;;
67140;SDS011;54058;52.010;5.546;2024-01-11T02:50:36;16.80;;;7.60;;
67140;SDS011;54058;52.010;5.546;2024-01-11T02:53:02;16.27;;;7.80;;
67140;SDS011;54058;52.010;5.546;2024-01-11T02:55:27;16.88;;;7.75;;
67140;SDS011;54058;52.010;5.546;2024-01-11T02:57:53;18.70;;;8.52;;
67140;SDS011;54058;52.010;5.546;2024-01-11T03:00:19;18.93;;;7.73;;
67140;SDS011;54058;52.010;5.546;2024-01-11T03:02:44;16.13;;;7.45;;
67140;SDS011;54058;52.010;5.546;2024-01-11T03:05:10;16.97;;;8.07;;
67140;SDS011;54058;52.010;5.546;2024-01-11T03:07:35;17.53;;;7.20;;
67140;SDS011;54058;52.010;5.546;2024-01-11T03:10:01;20.67;;;7.75;;
67140;SDS011;54058;52.010;5.546;2024-01-11T03:12:27;16.77;;;7.03;;
67140;SDS011;54058;52.010;5.546;2024-01-11T03:14:53;16.73;;;7.70;;
67140;SDS011;54058;52.010;5.546;2024-01-11T03:17:19;15.33;;;8.00;;
67140;SDS011;54058;52.010;5.546;2024-01-11T03:19:44;18.88;;;8.60;;
67140;SDS011;54058;52.010;5.546;2024-01-11T03:22:11;17.00;;;7.77;;
67140;SDS011;54058;52.010;5.546;2024-01-11T03:24:37;14.57;;;7.55;;
67140;SDS011;54058;52.010;5.546;2024-01-11T03:27:06;19.00;;;7.47;;
67140;SDS011;54058;52.010;5.546;2024-01-11T03:29:32;21.77;;;8.00;;
67140;SDS011;54058;52.010;5.546;2024-01-11T03:31:57;19.85;;;8.13;;
67140;SDS011;54058;52.010;5.546;2024-01-11T03:34:23;14.45;;;8.27;;
67140;SDS011;54058;52.010;5.546;2024-01-11T03:36:48;18.93;;;8.37;;
67140;SDS011;54058;52.010;5.546;2024-01-11T03:39:14;15.13;;;7.87;;
67140;SDS011;54058;52.010;5.546;2024-01-11T03:41:43;19.40;;;7.57;;
67140;SDS011;54058;52.010;5.546;2024-01-11T03:44:09;15.80;;;7.37;;
67140;SDS011;54058;52.010;5.546;2024-01-11T03:46:35;16.33;;;7.80;;
67140;SDS011;54058;52.010;5.546;2024-01-11T03:49:01;17.00;;;8.33;;
67140;SDS011;54058;52.010;5.546;2024-01-11T03:51:27;16.77;;;7.70;;
67140;SDS011;54058;52.010;5.546;2024-01-11T03:53:53;17.63;;;8.25;;
67140;SDS011;54058;52.010;5.546;2024-01-11T03:56:18;20.50;;;8.10;;
67140;SDS011;54058;52.010;5.546;2024-01-11T03:58:44;18.37;;;7.90;;
67140;SDS011;54058;52.010;5.546;2024-01-11T04:01:10;21.57;;;8.33;;
67140;SDS011;54058;52.010;5.546;2024-01-11T04:03:36;17.13;;;6.97;;
67140;SDS011;54058;52.010;5.546;2024-01-11T04:06:02;16.52;;;7.38;;
67140;SDS011;54058;52.010;5.546;2024-01-11T04:08:28;25.23;;;8.87;;
67140;SDS011;54058;52.010;5.546;2024-01-11T04:10:54;18.23;;;8.73;;
67140;SDS011;54058;52.010;5.546;2024-01-11T04:13:20;16.20;;;8.32;;
67140;SDS011;54058;52.010;5.546;2024-01-11T04:15:45;20.58;;;7.78;;
67140;SDS011;54058;52.010;5.546;2024-01-11T04:18:11;21.60;;;8.47;;
67140;SDS011;54058;52.010;5.546;2024-01-11T04:20:37;18.23;;;8.60;;
67140;SDS011;54058;52.010;5.546;2024-01-11T04:23:02;19.40;;;8.53;;
67140;SDS011;54058;52.010;5.546;2024-01-11T04:25:28;16.45;;;8.15;;
67140;SDS011;54058;52.010;5.546;2024-01-11T04:27:54;18.57;;;9.00;;
67140;SDS011;54058;52.010;5.546;2024-01-11T04:30:19;27.00;;;10.50;;
67140;SDS011;54058;52.010;5.546;2024-01-11T04:32:45;25.00;;;9.00;;
67140;SDS011;54058;52.010;5.546;2024-01-11T04:35:10;20.73;;;9.97;;
67140;SDS011;54058;52.010;5.546;2024-01-11T04:37:37;24.20;;;9.70;;
67140;SDS011;54058;52.010;5.546;2024-01-11T04:40:02;21.73;;;9.73;;
67140;SDS011;54058;52.010;5.546;2024-01-11T04:42:29;29.40;;;11.03;;
67140;SDS011;54058;52.010;5.546;2024-01-11T04:44:54;23.70;;;10.07;;
67140;SDS011;54058;52.010;5.546;2024-01-11T04:47:20;24.40;;;10.57;;
67140;SDS011;54058;52.010;5.546;2024-01-11T04:49:45;27.60;;;11.40;;
67140;SDS011;54058;52.010;5.546;2024-01-11T04:52:11;24.70;;;10.40;;
67140;SDS011;54058;52.010;5.546;2024-01-11T04:54:37;20.63;;;10.17;;
67140;SDS011;54058;52.010;5.546;2024-01-11T04:57:03;26.10;;;10.97;;
67140;SDS011;54058;52.010;5.546;2024-01-11T04:59:29;28.50;;;11.87;;
67140;SDS011;54058;52.010;5.546;2024-01-11T05:01:54;23.97;;;11.30;;
67140;SDS011;54058;52.010;5.546;2024-01-11T05:04:20;20.93;;;9.93;;
67140;SDS011;54058;52.010;5.546;2024-01-11T05:06:45;20.47;;;10.13;;
67140;SDS011;54058;52.010;5.546;2024-01-11T05:09:11;23.80;;;10.93;;
67140;SDS011;54058;52.010;5.546;2024-01-11T05:11:37;24.57;;;10.67;;
67140;SDS011;54058;52.010;5.546;2024-01-11T05:14:02;20.47;;;10.53;;
67140;SDS011;54058;52.010;5.546;2024-01-11T05:16:28;27.60;;;10.17;;
67140;SDS011;54058;52.010;5.546;2024-01-11T05:18:55;22.73;;;10.90;;
67140;SDS011;54058;52.010;5.546;2024-01-11T05:21:21;23.73;;;10.40;;
67140;SDS011;54058;52.010;5.546;2024-01-11T05:23:48;19.77;;;10.17;;
67140;SDS011;54058;52.010;5.546;2024-01-11T05:26:16;28.13;;;10.77;;
67140;SDS011;54058;52.010;5.546;2024-01-11T05:28:43;23.90;;;10.97;;
67140;SDS011;54058;52.010;5.546;2024-01-11T05:31:09;23.10;;;11.33;;
67140;SDS011;54058;52.010;5.546;2024-01-11T05:33:36;24.35;;;10.20;;
67140;SDS011;54058;52.010;5.546;2024-01-11T05:36:03;24.97;;;10.83;;
67140;SDS011;54058;52.010;5.546;2024-01-11T05:38:29;25.17;;;10.53;;
67140;SDS011;54058;52.010;5.546;2024-01-11T05:40:54;23.23;;;10.67;;
67140;SDS011;54058;52.010;5.546;2024-01-11T05:43:21;25.03;;;10.37;;
67140;SDS011;54058;52.010;5.546;2024-01-11T05:45:48;25.50;;;12.20;;
67140;SDS011;54058;52.010;5.546;2024-01-11T05:48:15;22.70;;;10.73;;
67140;SDS011;54058;52.010;5.546;2024-01-11T05:50:41;20.95;;;10.55;;
67140;SDS011;54058;52.010;5.546;2024-01-11T05:53:07;23.53;;;11.53;;
67140;SDS011;54058;52.010;5.546;2024-01-11T05:55:32;24.27;;;11.07;;
67140;SDS011;54058;52.010;5.546;2024-01-11T05:57:58;25.67;;;11.73;;
67140;SDS011;54058;52.010;5.546;2024-01-11T06:00:24;35.67;;;11.30;;
67140;SDS011;54058;52.010;5.546;2024-01-11T06:02:50;19.60;;;10.83;;
67140;SDS011;54058;52.010;5.546;2024-01-11T06:05:15;25.98;;;12.20;;
67140;SDS011;54058;52.010;5.546;2024-01-11T06:07:41;23.67;;;11.33;;
67140;SDS011;54058;52.010;5.546;2024-01-11T06:10:07;21.53;;;10.50;;
67140;SDS011;54058;52.010;5.546;2024-01-11T06:12:34;29.15;;;12.77;;
67140;SDS011;54058;52.010;5.546;2024-01-11T06:15:00;24.00;;;11.98;;
67140;SDS011;54058;52.010;5.546;2024-01-11T06:17:26;23.00;;;10.50;;
67140;SDS011;54058;52.010;5.546;2024-01-11T06:19:52;22.20;;;10.50;;
67140;SDS011;54058;52.010;5.546;2024-01-11T06:22:18;23.00;;;11.07;;
67140;SDS011;54058;52.010;5.546;2024-01-11T06:24:44;24.55;;;11.05;;
67140;SDS011;54058;52.010;5.546;2024-01-11T06:27:09;27.33;;;12.30;;
67140;SDS011;54058;52.010;5.546;2024-01-11T06:29:35;25.60;;;12.57;;
67140;SDS011;54058;52.010;5.546;2024-01-11T06:32:01;29.63;;;13.35;;
67140;SDS011;54058;52.010;5.546;2024-01-11T06:34:27;25.33;;;12.93;;
67140;SDS011;54058;52.010;5.546;2024-01-11T06:36:53;29.20;;;13.30;;
67140;SDS011;54058;52.010;5.546;2024-01-11T06:39:20;31.13;;;12.88;;
67140;SDS011;54058;52.010;5.546;2024-01-11T06:41:45;27.40;;;12.55;;
67140;SDS011;54058;52.010;5.546;2024-01-11T06:44:11;26.23;;;11.87;;
67140;SDS011;54058;52.010;5.546;2024-01-11T06:46:37;27.50;;;12.77;;
67140;SDS011;54058;52.010;5.546;2024-01-11T06:49:05;27.17;;;11.52;;
67140;SDS011;54058;52.010;5.546;2024-01-11T06:51:31;22.87;;;11.33;;
67140;SDS011;54058;52.010;5.546;2024-01-11T06:53:57;26.17;;;13.18;;
67140;SDS011;54058;52.010;5.546;2024-01-11T06:56:25;31.35;;;13.18;;
67140;SDS011;54058;52.010;5.546;2024-01-11T06:58:50;30.50;;;13.57;;
67140;SDS011;54058;52.010;5.546;2024-01-11T07:01:16;28.10;;;13.35;;
67140;SDS011;54058;52.010;5.546;2024-01-11T07:03:42;27.25;;;12.13;;
67140;SDS011;54058;52.010;5.546;2024-01-11T07:06:08;31.70;;;13.27;;
67140;SDS011;54058;52.010;5.546;2024-01-11T07:08:34;30.70;;;13.37;;
67140;SDS011;54058;52.010;5.546;2024-01-11T07:11:00;28.37;;;14.10;;
67140;SDS011;54058;52.010;5.546;2024-01-11T07:13:27;34.72;;;13.15;;
67140;SDS011;54058;52.010;5.546;2024-01-11T07:15:53;30.93;;;13.70;;
67140;SDS011;54058;52.010;5.546;2024-01-11T07:18:20;30.27;;;13.13;;
67140;SDS011;54058;52.010;5.546;2024-01-11T07:20:46;26.93;;;13.03;;
67140;SDS011;54058;52.010;5.546;2024-01-11T07:23:13;32.15;;;13.57;;
67140;SDS011;54058;52.010;5.546;2024-01-11T07:25:38;26.53;;;12.20;;
67140;SDS011;54058;52.010;5.546;2024-01-11T07:28:05;30.05;;;12.80;;
67140;SDS011;54058;52.010;5.546;2024-01-11T07:30:31;30.13;;;13.87;;
67140;SDS011;54058;52.010;5.546;2024-01-11T07:32:56;25.30;;;12.47;;
67140;SDS011;54058;52.010;5.546;2024-01-11T07:35:22;26.40;;;12.77;;
67140;SDS011;54058;52.010;5.546;2024-01-11T07:37:48;32.35;;;14.32;;
67140;SDS011;54058;52.010;5.546;2024-01-11T07:40:15;29.17;;;13.20;;
67140;SDS011;54058;52.010;5.546;2024-01-11T07:42:41;31.00;;;12.97;;
67140;SDS011;54058;52.010;5.546;2024-01-11T07:45:08;29.07;;;12.13;;
67140;SDS011;54058;52.010;5.546;2024-01-11T07:47:38;27.92;;;13.30;;
67140;SDS011;54058;52.010;5.546;2024-01-11T07:50:08;29.63;;;12.88;;
67140;SDS011;54058;52.010;5.546;2024-01-11T07:52:40;32.10;;;13.93;;
67140;SDS011;54058;52.010;5.546;2024-01-11T07:55:09;27.30;;;13.37;;
67140;SDS011;54058;52.010;5.546;2024-01-11T07:57:37;27.30;;;12.97;;
67140;SDS011;54058;52.010;5.546;2024-01-11T08:00:03;30.03;;;13.33;;
67140;SDS011;54058;52.010;5.546;2024-01-11T08:02:31;32.47;;;13.63;;
67140;SDS011;54058;52.010;5.546;2024-01-11T08:04:57;25.77;;;12.87;;
67140;SDS011;54058;52.010;5.546;2024-01-11T08:07:24;29.55;;;13.40;;
67140;SDS011;54058;52.010;5.546;2024-01-11T08:09:53;27.00;;;13.20;;
67140;SDS011;54058;52.010;5.546;2024-01-11T08:12:18;28.63;;;13.53;;
67140;SDS011;54058;52.010;5.546;2024-01-11T08:14:44;28.42;;;13.65;;
67140;SDS011;54058;52.010;5.546;2024-01-11T08:17:11;29.73;;;14.10;;
67140;SDS011;54058;52.010;5.546;2024-01-11T08:19:41;35.03;;;14.07;;
67140;SDS011;54058;52.010;5.546;2024-01-11T08:22:09;30.92;;;14.07;;
67140;SDS011;54058;52.010;5.546;2024-01-11T08:24:35;30.13;;;13.77;;
67140;SDS011;54058;52.010;5.546;2024-01-11T08:27:01;25.40;;;13.52;;
67140;SDS011;54058;52.010;5.546;2024-01-11T08:29:27;32.70;;;13.88;;
67140;SDS011;54058;52.010;5.546;2024-01-11T08:31:53;35.47;;;14.27;;
67140;SDS011;54058;52.010;5.546;2024-01-11T08:34:20;29.52;;;14.75;;
67140;SDS011;54058;52.010;5.546;2024-01-11T08:36:46;26.98;;;14.35;;
67140;SDS011;54058;52.010;5.546;2024-01-11T08:39:12;33.92;;;15.23;;
67140;SDS011;54058;52.010;5.546;2024-01-11T08:41:39;31.70;;;15.63;;
67140;SDS011;54058;52.010;5.546;2024-01-11T08:44:05;36.40;;;15.67;;
67140;SDS011;54058;52.010;5.546;2024-01-11T08:46:31;39.13;;;18.03;;
67140;SDS011;54058;52.010;5.546;2024-01-11T08:48:58;39.20;;;15.45;;
67140;SDS011;54058;52.010;5.546;2024-01-11T08:51:24;36.70;;;17.00;;
67140;SDS011;54058;52.010;5.546;2024-01-11T08:53:51;39.72;;;16.48;;
67140;SDS011;54058;52.010;5.546;2024-01-11T08:56:18;41.22;;;17.48;;
67140;SDS011;54058;52.010;5.546;2024-01-11T08:58:44;39.65;;;19.80;;
67140;SDS011;54058;52.010;5.546;2024-01-11T09:01:10;38.30;;;17.67;;
67140;SDS011;54058;52.010;5.546;2024-01-11T09:03:36;39.28;;;18.00;;
67140;SDS011;54058;52.010;5.546;2024-01-11T09:06:02;35.03;;;17.88;;
67140;SDS011;54058;52.010;5.546;2024-01-11T09:08:28;43.35;;;18.30;;
67140;SDS011;54058;52.010;5.546;2024-01-11T09:10:55;41.15;;;18.10;;
67140;SDS011;54058;52.010;5.546;2024-01-11T09:13:23;38.00;;;17.43;;
67140;SDS011;54058;52.010;5.546;2024-01-11T09:15:51;44.05;;;20.63;;
67140;SDS011;54058;52.010;5.546;2024-01-11T09:18:17;42.72;;;19.90;;
67140;SDS011;54058;52.010;5.546;2024-01-11T09:20:43;40.70;;;19.25;;
67140;SDS011;54058;52.010;5.546;2024-01-11T09:23:09;45.50;;;19.30;;
67140;SDS011;54058;52.010;5.546;2024-01-11T09:25:34;42.70;;;20.02;;
67140;SDS011;54058;52.010;5.546;2024-01-11T09:28:00;44.50;;;18.27;;
67140;SDS011;54058;52.010;5.546;2024-01-11T09:30:26;42.20;;;19.30;;
67140;SDS011;54058;52.010;5.546;2024-01-11T09:32:52;40.78;;;19.58;;
67140;SDS011;54058;52.010;5.546;2024-01-11T09:35:17;32.05;;;15.65;;
67140;SDS011;54058;52.010;5.546;2024-01-11T09:37:43;40.80;;;17.55;;
67140;SDS011;54058;52.010;5.546;2024-01-11T09:40:11;50.33;;;18.52;;
67140;SDS011;54058;52.010;5.546;2024-01-11T09:42:37;43.78;;;20.00;;
67140;SDS011;54058;52.010;5.546;2024-01-11T09:45:10;41.03;;;17.65;;
67140;SDS011;54058;52.010;5.546;2024-01-11T09:47:38;39.50;;;18.73;;
67140;SDS011;54058;52.010;5.546;2024-01-11T09:50:05;43.13;;;19.63;;
67140;SDS011;54058;52.010;5.546;2024-01-11T09:52:32;41.63;;;17.20;;
67140;SDS011;54058;52.010;5.546;2024-01-11T09:54:58;39.05;;;17.58;;
67140;SDS011;54058;52.010;5.546;2024-01-11T09:57:24;52.95;;;20.42;;
67140;SDS011;54058;52.010;5.546;2024-01-11T09:59:55;35.92;;;17.35;;
67140;SDS011;54058;52.010;5.546;2024-01-11T10:02:22;34.05;;;17.27;;
67140;SDS011;54058;52.010;5.546;2024-01-11T10:04:49;37.40;;;17.55;;
67140;SDS011;54058;52.010;5.546;2024-01-11T10:07:17;52.72;;;18.83;;
67140;SDS011;54058;52.010;5.546;2024-01-11T10:09:46;36.33;;;17.42;;
67140;SDS011;54058;52.010;5.546;2024-01-11T10:12:12;36.97;;;18.25;;
67140;SDS011;54058;52.010;5.546;2024-01-11T10:14:38;33.83;;;17.48;;
67140;SDS011;54058;52.010;5.546;2024-01-11T10:17:04;34.65;;;16.38;;
67140;SDS011;54058;52.010;5.546;2024-01-11T10:19:30;26.85;;;13.75;;
67140;SDS011;54058;52.010;5.546;2024-01-11T10:21:56;26.65;;;14.32;;
67140;SDS011;54058;52.010;5.546;2024-01-11T10:24:23;26.45;;;13.02;;
67140;SDS011;54058;52.010;5.546;2024-01-11T10:26:51;29.00;;;11.77;;
67140;SDS011;54058;52.010;5.546;2024-01-11T10:29:31;25.90;;;13.00;;
67140;SDS011;54058;52.010;5.546;2024-01-11T10:31:57;26.00;;;12.27;;
67140;SDS011;54058;52.010;5.546;2024-01-11T10:34:23;19.63;;;9.75;;
67140;SDS011;54058;52.010;5.546;2024-01-11T10:36:50;22.83;;;9.93;;
67140;SDS011;54058;52.010;5.546;2024-01-11T10:39:16;19.10;;;8.45;;
67140;SDS011;54058;52.010;5.546;2024-01-11T10:44:29;26.55;;;11.32;;
67140;SDS011;54058;52.010;5.546;2024-01-11T10:47:02;26.10;;;10.68;;
67140;SDS011;54058;52.010;5.546;2024-01-11T10:49:31;29.70;;;11.07;;
67140;SDS011;54058;52.010;5.546;2024-01-11T10:51:59;25.50;;;9.93;;
67140;SDS011;54058;52.010;5.546;2024-01-11T10:54:27;28.10;;;12.10;;
67140;SDS011;54058;52.010;5.546;2024-01-11T10:56:55;30.85;;;11.50;;
67140;SDS011;54058;52.010;5.546;2024-01-11T10:59:27;29.95;;;11.05;;
67140;SDS011;54058;52.010;5.546;2024-01-11T11:01:56;30.17;;;11.70;;
67140;SDS011;54058;52.010;5.546;2024-01-11T11:04:28;32.70;;;11.65;;
67140;SDS011;54058;52.010;5.546;2024-01-11T11:06:56;32.65;;;12.48;;
67140;SDS011;54058;52.010;5.546;2024-01-11T11:09:25;35.00;;;12.68;;
67140;SDS011;54058;52.010;5.546;2024-01-11T11:11:56;30.77;;;13.18;;
67140;SDS011;54058;52.010;5.546;2024-01-11T11:14:24;36.75;;;12.27;;
67140;SDS011;54058;52.010;5.546;2024-01-11T11:16:50;36.13;;;13.35;;
67140;SDS011;54058;52.010;5.546;2024-01-11T11:19:17;40.67;;;14.07;;
67140;SDS011;54058;52.010;5.546;2024-01-11T11:21:47;31.02;;;12.23;;
67140;SDS011;54058;52.010;5.546;2024-01-11T11:24:13;40.97;;;13.52;;
67140;SDS011;54058;52.010;5.546;2024-01-11T11:26:41;30.27;;;11.25;;
67140;SDS011;54058;52.010;5.546;2024-01-11T11:29:08;40.47;;;12.30;;
67140;SDS011;54058;52.010;5.546;2024-01-11T11:31:34;38.65;;;13.02;;
67140;SDS011;54058;52.010;5.546;2024-01-11T11:36:29;38.53;;;12.98;;
67140;SDS011;54058;52.010;5.546;2024-01-11T11:38:58;29.38;;;11.85;;
67140;SDS011;54058;52.010;5.546;2024-01-11T11:41:34;34.38;;;13.82;;
67140;SDS011;54058;52.010;5.546;2024-01-11T11:44:01;30.25;;;12.05;;
67140;SDS011;54058;52.010;5.546;2024-01-11T11:46:31;29.35;;;12.45;;
67140;SDS011;54058;52.010;5.546;2024-01-11T11:48:58;26.77;;;10.70;;
67140;SDS011;54058;52.010;5.546;2024-01-11T11:51:25;41.03;;;13.30;;
67140;SDS011;54058;52.010;5.546;2024-01-11T11:53:51;31.98;;;13.00;;
67140;SDS011;54058;52.010;5.546;2024-01-11T11:56:18;35.97;;;12.93;;
67140;SDS011;54058;52.010;5.546;2024-01-11T11:58:45;42.17;;;13.25;;
67140;SDS011;54058;52.010;5.546;2024-01-11T12:01:13;39.47;;;15.80;;
67140;SDS011;54058;52.010;5.546;2024-01-11T12:03:40;34.53;;;13.52;;
67140;SDS011;54058;52.010;5.546;2024-01-11T12:06:08;30.75;;;12.85;;
67140;SDS011;54058;52.010;5.546;2024-01-11T12:08:37;34.80;;;13.25;;
67140;SDS011;54058;52.010;5.546;2024-01-11T12:11:06;39.80;;;14.57;;
67140;SDS011;54058;52.010;5.546;2024-01-11T12:13:32;37.72;;;14.48;;
67140;SDS011;54058;52.010;5.546;2024-01-11T12:15:57;28.20;;;11.63;;
67140;SDS011;54058;52.010;5.546;2024-01-11T12:18:23;29.67;;;12.25;;
67140;SDS011;54058;52.010;5.546;2024-01-11T12:20:49;34.60;;;13.23;;
67140;SDS011;54058;52.010;5.546;2024-01-11T12:23:18;33.55;;;12.48;;
67140;SDS011;54058;52.010;5.546;2024-01-11T12:25:43;32.45;;;12.90;;
67140;SDS011;54058;52.010;5.546;2024-01-11T12:28:09;41.00;;;13.70;;
67140;SDS011;54058;52.010;5.546;2024-01-11T12:30:35;25.55;;;11.95;;
67140;SDS011;54058;52.010;5.546;2024-01-11T12:33:01;27.20;;;10.82;;
67140;SDS011;54058;52.010;5.546;2024-01-11T12:35:27;32.77;;;13.40;;
67140;SDS011;54058;52.010;5.546;2024-01-11T12:40:34;27.83;;;11.02;;
67140;SDS011;54058;52.010;5.546;2024-01-11T12:43:05;28.30;;;12.35;;
67140;SDS011;54058;52.010;5.546;2024-01-11T12:45:32;31.63;;;13.20;;
67140;SDS011;54058;52.010;5.546;2024-01-11T12:47:59;26.63;;;12.17;;
67140;SDS011;54058;52.010;5.546;2024-01-11T12:50:28;30.00;;;12.02;;
67140;SDS011;54058;52.010;5.546;2024-01-11T12:53:31;30.85;;;12.18;;
67140;SDS011;54058;52.010;5.546;2024-01-11T12:56:04;24.25;;;10.20;;
67140;SDS011;54058;52.010;5.546;2024-01-11T12:58:33;28.33;;;10.75;;
67140;SDS011;54058;52.010;5.546;2024-01-11T13:00:59;29.40;;;11.98;;
67140;SDS011;54058;52.010;5.546;2024-01-11T13:03:25;27.20;;;10.73;;
67140;SDS011;54058;52.010;5.546;2024-01-11T13:05:52;25.80;;;10.65;;
67140;SDS011;54058;52.010;5.546;2024-01-11T13:08:18;30.38;;;11.45;;
67140;SDS011;54058;52.010;5.546;2024-01-11T13:10:44;23.90;;;10.63;;
67140;SDS011;54058;52.010;5.546;2024-01-11T13:13:11;26.33;;;10.70;;
67140;SDS011;54058;52.010;5.546;2024-01-11T13:15:37;23.77;;;10.52;;
67140;SDS011;54058;52.010;5.546;2024-01-11T13:18:03;26.23;;;10.45;;
67140;SDS011;54058;52.010;5.546;2024-01-11T13:20:29;23.92;;;10.65;;
67140;SDS011;54058;52.010;5.546;2024-01-11T13:23:17;23.60;;;10.18;;
67140;SDS011;54058;52.010;5.546;2024-01-11T13:25:49;25.17;;;10.82;;
67140;SDS011;54058;52.010;5.546;2024-01-11T13:28:15;21.00;;;10.15;;
67140;SDS011;54058;52.010;5.546;2024-01-11T13:30:42;22.50;;;9.35;;
67140;SDS011;54058;52.010;5.546;2024-01-11T13:33:09;25.63;;;9.85;;
67140;SDS011;54058;52.010;5.546;2024-01-11T13:35:38;24.30;;;9.52;;
67140;SDS011;54058;52.010;5.546;2024-01-11T13:38:04;21.07;;;9.50;;
67140;SDS011;54058;52.010;5.546;2024-01-11T13:40:30;24.67;;;9.80;;
67140;SDS011;54058;52.010;5.546;2024-01-11T13:42:57;26.33;;;10.48;;
67140;SDS011;54058;52.010;5.546;2024-01-11T13:45:24;24.55;;;9.48;;
67140;SDS011;54058;52.010;5.546;2024-01-11T13:47:50;22.90;;;9.93;;
67140;SDS011;54058;52.010;5.546;2024-01-11T13:50:18;29.75;;;10.27;;
67140;SDS011;54058;52.010;5.546;2024-01-11T13:52:44;21.00;;;9.45;;
67140;SDS011;54058;52.010;5.546;2024-01-11T13:55:10;22.03;;;9.13;;
67140;SDS011;54058;52.010;5.546;2024-01-11T13:57:36;23.73;;;10.13;;
67140;SDS011;54058;52.010;5.546;2024-01-11T14:00:03;20.63;;;9.15;;
67140;SDS011;54058;52.010;5.546;2024-01-11T14:02:30;20.20;;;8.85;;
67140;SDS011;54058;52.010;5.546;2024-01-11T14:04:56;20.33;;;9.13;;
67140;SDS011;54058;52.010;5.546;2024-01-11T14:07:22;20.73;;;9.18;;
67140;SDS011;54058;52.010;5.546;2024-01-11T14:09:48;21.67;;;8.45;;
67140;SDS011;54058;52.010;5.546;2024-01-11T14:12:14;19.60;;;8.27;;
67140;SDS011;54058;52.010;5.546;2024-01-11T14:14:40;19.30;;;8.52;;
67140;SDS011;54058;52.010;5.546;2024-01-11T14:17:07;16.27;;;8.07;;
67140;SDS011;54058;52.010;5.546;2024-01-11T14:19:33;22.83;;;9.77;;
67140;SDS011;54058;52.010;5.546;2024-01-11T14:21:59;21.05;;;9.07;;
67140;SDS011;54058;52.010;5.546;2024-01-11T14:24:25;18.48;;;9.02;;
67140;SDS011;54058;52.010;5.546;2024-01-11T14:26:51;21.85;;;9.68;;
67140;SDS011;54058;52.010;5.546;2024-01-11T14:29:17;19.70;;;8.77;;
67140;SDS011;54058;52.010;5.546;2024-01-11T14:31:42;24.38;;;10.32;;